sensor_id;sensor_type;location;lat;lon;timestamp;P1;durP1;ratioP1;P2;durP2;ratioP2
43419;SDS011;29017;51.514;-0.178;2022-09-09T00:14:20;15.35;;;1.90;;
43419;SDS011;29017;51.514;-0.178;2022-09-09T00:17:14;19.67;;;1.77;;
43419;SDS011;29017;51.514;-0.178;2022-09-09T00:20:09;13.50;;;2.00;;
43419;SDS011;29017;51.514;-0.178;2022-09-09T00:28:04;16.52;;;2.35;;
43419;SDS011;29017;51.514;-0.178;2022-09-09T00:30:38;11.55;;;1.92;;
43419;SDS011;29017;51.514;-0.178;2022-09-09T00:33:10;10.82;;;1.45;;
43419;SDS011;29017;51.514;-0.178;2022-09-09T00:48:31;10.35;;;1.42;;
43419;SDS011;29017;51.514;-0.178;2022-09-09T00:56:19;34.58;;;13.27;;
43419;SDS011;29017;51.514;-0.178;2022-09-09T00:58:57;10.27;;;2.42;;
43419;SDS011;29017;51.514;-0.178;2022-09-09T01:01:33;6.68;;;2.13;;
43419;SDS011;29017;51.514;-0.178;2022-09-09T01:04:02;10.82;;;1.35;;
43419;SDS011;29017;51.514;-0.178;2022-09-09T01:06:42;10.02;;;1.10;;
43419;SDS011;29017;51.514;-0.178;2022-09-09T01:16:59;11.77;;;1.00;;
43419;SDS011;29017;51.514;-0.178;2022-09-09T01:22:10;12.43;;;1.60;;
43419;SDS011;29017;51.514;-0.178;2022-09-09T01:24:53;9.18;;;0.90;;
43419;SDS011;29017;51.514;-0.178;2022-09-09T01:27:23;11.38;;;1.58;;
43419;SDS011;29017;51.514;-0.178;2022-09-09T01:29:51;11.68;;;1.50;;
43419;SDS011;29017;51.514;-0.178;2022-09-09T01:34:50;10.20;;;1.23;;
43419;SDS011;29017;51.514;-0.178;2022-09-09T01:37:19;13.57;;;2.22;;
43419;SDS011;29017;51.514;-0.178;2022-09-09T01:39:47;10.38;;;1.00;;
43419;SDS011;29017;51.514;-0.178;2022-09-09T01:42:15;10.27;;;1.38;;
43419;SDS011;29017;51.514;-0.178;2022-09-09T01:44:44;10.50;;;1.48;;
43419;SDS011;29017;51.514;-0.178;2022-09-09T01:47:12;13.07;;;2.22;;
43419;SDS011;29017;51.514;-0.178;2022-09-09T01:49:41;8.45;;;0.88;;
43419;SDS011;29017;51.514;-0.178;2022-09-09T01:52:09;7.93;;;1.23;;
43419;SDS011;29017;51.514;-0.178;2022-09-09T01:54:36;11.15;;;1.75;;
43419;SDS011;29017;51.514;-0.178;2022-09-09T02:02:08;7.05;;;1.52;;
43419;SDS011;29017;51.514;-0.178;2022-09-09T02:07:10;13.05;;;1.90;;
43419;SDS011;29017;51.514;-0.178;2022-09-09T02:09:49;8.35;;;1.67;;
43419;SDS011;29017;51.514;-0.178;2022-09-09T02:12:23;8.00;;;2.42;;
43419;SDS011;29017;51.514;-0.178;2022-09-09T02:14:55;7.03;;;1.65;;
43419;SDS011;29017;51.514;-0.178;2022-09-09T02:17:30;13.38;;;1.80;;
43419;SDS011;29017;51.514;-0.178;2022-09-09T02:20:05;14.82;;;1.88;;
43419;SDS011;29017;51.514;-0.178;2022-09-09T02:22:37;14.95;;;2.25;;
43419;SDS011;29017;51.514;-0.178;2022-09-09T02:25:07;13.23;;;1.98;;
43419;SDS011;29017;51.514;-0.178;2022-09-09T02:27:35;8.25;;;1.55;;
43419;SDS011;29017;51.514;-0.178;2022-09-09T02:30:03;17.50;;;1.92;;
43419;SDS011;29017;51.514;-0.178;2022-09-09T02:32:32;9.13;;;2.17;;
43419;SDS011;29017;51.514;-0.178;2022-09-09T02:35:02;9.88;;;2.78;;
43419;SDS011;29017;51.514;-0.178;2022-09-09T02:37:33;21.77;;;2.70;;
43419;SDS011;29017;51.514;-0.178;2022-09-09T02:40:03;12.60;;;2.33;;
43419;SDS011;29017;51.514;-0.178;2022-09-09T02:42:32;13.32;;;2.30;;
43419;SDS011;29017;51.514;-0.178;2022-09-09T02:45:05;11.13;;;1.55;;
43419;SDS011;29017;51.514;-0.178;2022-09-09T02:47:35;11.60;;;2.45;;
43419;SDS011;29017;51.514;-0.178;2022-09-09T02:55:06;11.23;;;2.25;;
43419;SDS011;29017;51.514;-0.178;2022-09-09T02:57:34;10.43;;;1.58;;
43419;SDS011;29017;51.514;-0.178;2022-09-09T03:00:04;15.60;;;2.05;;
43419;SDS011;29017;51.514;-0.178;2022-09-09T03:02:32;16.55;;;3.03;;
43419;SDS011;29017;51.514;-0.178;2022-09-09T03:04:59;24.77;;;7.85;;
43419;SDS011;29017;51.514;-0.178;2022-09-09T03:07:27;20.05;;;2.72;;
43419;SDS011;29017;51.514;-0.178;2022-09-09T03:09:54;18.38;;;2.33;;
43419;SDS011;29017;51.514;-0.178;2022-09-09T03:14:50;11.82;;;2.08;;
43419;SDS011;29017;51.514;-0.178;2022-09-09T03:17:17;11.98;;;1.95;;
43419;SDS011;29017;51.514;-0.178;2022-09-09T03:19:44;8.70;;;1.60;;
43419;SDS011;29017;51.514;-0.178;2022-09-09T03:22:12;11.52;;;1.88;;
43419;SDS011;29017;51.514;-0.178;2022-09-09T03:24:39;9.52;;;1.95;;
43419;SDS011;29017;51.514;-0.178;2022-09-09T03:27:05;11.00;;;1.70;;
43419;SDS011;29017;51.514;-0.178;2022-09-09T03:29:33;9.65;;;2.00;;
43419;SDS011;29017;51.514;-0.178;2022-09-09T03:32:01;17.63;;;2.50;;
43419;SDS011;29017;51.514;-0.178;2022-09-09T03:34:28;13.32;;;2.15;;
43419;SDS011;29017;51.514;-0.178;2022-09-09T03:36:56;9.60;;;1.55;;
43419;SDS011;29017;51.514;-0.178;2022-09-09T03:39:23;11.85;;;2.20;;
43419;SDS011;29017;51.514;-0.178;2022-09-09T03:41:52;9.30;;;1.55;;
43419;SDS011;29017;51.514;-0.178;2022-09-09T03:44:19;8.57;;;1.73;;
43419;SDS011;29017;51.514;-0.178;2022-09-09T03:49:13;10.15;;;1.65;;
43419;SDS011;29017;51.514;-0.178;2022-09-09T03:51:41;8.95;;;1.33;;
43419;SDS011;29017;51.514;-0.178;2022-09-09T03:54:09;8.13;;;1.45;;
43419;SDS011;29017;51.514;-0.178;2022-09-09T03:56:36;14.77;;;2.85;;
43419;SDS011;29017;51.514;-0.178;2022-09-09T04:01:32;8.20;;;1.38;;
43419;SDS011;29017;51.514;-0.178;2022-09-09T04:04:33;9.18;;;1.27;;
43419;SDS011;29017;51.514;-0.178;2022-09-09T04:07:00;6.97;;;1.08;;
43419;SDS011;29017;51.514;-0.178;2022-09-09T04:09:26;8.32;;;1.33;;
43419;SDS011;29017;51.514;-0.178;2022-09-09T04:11:54;11.43;;;3.03;;
43419;SDS011;29017;51.514;-0.178;2022-09-09T04:14:21;8.18;;;1.15;;
43419;SDS011;29017;51.514;-0.178;2022-09-09T04:17:03;6.63;;;1.13;;
43419;SDS011;29017;51.514;-0.178;2022-09-09T04:19:32;7.30;;;1.70;;
43419;SDS011;29017;51.514;-0.178;2022-09-09T04:22:00;11.02;;;1.42;;
43419;SDS011;29017;51.514;-0.178;2022-09-09T04:24:27;6.20;;;1.02;;
43419;SDS011;29017;51.514;-0.178;2022-09-09T04:29:23;8.30;;;1.10;;
43419;SDS011;29017;51.514;-0.178;2022-09-09T04:31:51;9.25;;;1.42;;
43419;SDS011;29017;51.514;-0.178;2022-09-09T04:34:20;10.63;;;1.65;;
43419;SDS011;29017;51.514;-0.178;2022-09-09T04:36:47;5.55;;;1.70;;
43419;SDS011;29017;51.514;-0.178;2022-09-09T04:39:14;7.35;;;1.63;;
43419;SDS011;29017;51.514;-0.178;2022-09-09T04:41:41;8.68;;;1.40;;
43419;SDS011;29017;51.514;-0.178;2022-09-09T04:44:09;11.07;;;2.15;;
43419;SDS011;29017;51.514;-0.178;2022-09-09T04:46:36;7.95;;;1.60;;
43419;SDS011;29017;51.514;-0.178;2022-09-09T04:49:04;5.65;;;1.63;;
43419;SDS011;29017;51.514;-0.178;2022-09-09T04:51:31;8.40;;;2.20;;
43419;SDS011;29017;51.514;-0.178;2022-09-09T04:53:59;6.55;;;1.63;;
43419;SDS011;29017;51.514;-0.178;2022-09-09T04:56:26;7.18;;;1.50;;
43419;SDS011;29017;51.514;-0.178;2022-09-09T04:58:54;13.18;;;1.80;;
43419;SDS011;29017;51.514;-0.178;2022-09-09T05:01:21;5.88;;;1.60;;
43419;SDS011;29017;51.514;-0.178;2022-09-09T05:03:50;8.48;;;2.03;;
43419;SDS011;29017;51.514;-0.178;2022-09-09T05:06:20;10.30;;;1.90;;
43419;SDS011;29017;51.514;-0.178;2022-09-09T05:08:47;8.68;;;1.75;;
43419;SDS011;29017;51.514;-0.178;2022-09-09T05:11:17;6.10;;;1.33;;
43419;SDS011;29017;51.514;-0.178;2022-09-09T05:13:47;7.05;;;1.30;;
43419;SDS011;29017;51.514;-0.178;2022-09-09T05:16:15;8.25;;;1.70;;
43419;SDS011;29017;51.514;-0.178;2022-09-09T05:18:44;5.78;;;1.60;;
43419;SDS011;29017;51.514;-0.178;2022-09-09T05:21:13;10.30;;;2.70;;
43419;SDS011;29017;51.514;-0.178;2022-09-09T05:23:42;7.82;;;2.00;;
43419;SDS011;29017;51.514;-0.178;2022-09-09T05:26:11;9.35;;;2.00;;
43419;SDS011;29017;51.514;-0.178;2022-09-09T05:28:43;6.60;;;1.92;;
43419;SDS011;29017;51.514;-0.178;2022-09-09T05:31:11;5.65;;;1.40;;
43419;SDS011;29017;51.514;-0.178;2022-09-09T05:33:40;6.03;;;1.73;;
43419;SDS011;29017;51.514;-0.178;2022-09-09T05:36:10;9.57;;;1.70;;
43419;SDS011;29017;51.514;-0.178;2022-09-09T05:38:40;8.45;;;1.85;;
43419;SDS011;29017;51.514;-0.178;2022-09-09T05:41:08;9.45;;;1.75;;
43419;SDS011;29017;51.514;-0.178;2022-09-09T05:43:38;7.63;;;1.95;;
43419;SDS011;29017;51.514;-0.178;2022-09-09T05:46:07;10.80;;;1.75;;
43419;SDS011;29017;51.514;-0.178;2022-09-09T05:48:35;9.50;;;2.33;;
43419;SDS011;29017;51.514;-0.178;2022-09-09T05:51:04;8.32;;;2.20;;
43419;SDS011;29017;51.514;-0.178;2022-09-09T05:53:35;10.20;;;2.38;;
43419;SDS011;29017;51.514;-0.178;2022-09-09T05:56:03;12.25;;;4.00;;
43419;SDS011;29017;51.514;-0.178;2022-09-09T05:58:33;11.95;;;2.60;;
43419;SDS011;29017;51.514;-0.178;2022-09-09T06:01:04;9.45;;;3.10;;
43419;SDS011;29017;51.514;-0.178;2022-09-09T06:03:35;10.57;;;3.05;;
43419;SDS011;29017;51.514;-0.178;2022-09-09T06:06:04;10.60;;;2.83;;
43419;SDS011;29017;51.514;-0.178;2022-09-09T06:08:34;9.48;;;2.47;;
43419;SDS011;29017;51.514;-0.178;2022-09-09T06:11:05;10.63;;;3.40;;
43419;SDS011;29017;51.514;-0.178;2022-09-09T06:13:34;15.55;;;3.60;;
43419;SDS011;29017;51.514;-0.178;2022-09-09T06:16:03;9.48;;;3.05;;
43419;SDS011;29017;51.514;-0.178;2022-09-09T06:18:32;9.20;;;3.15;;
43419;SDS011;29017;51.514;-0.178;2022-09-09T06:21:00;7.97;;;3.22;;
43419;SDS011;29017;51.514;-0.178;2022-09-09T06:23:30;8.52;;;3.38;;
43419;SDS011;29017;51.514;-0.178;2022-09-09T06:28:32;12.60;;;4.38;;
43419;SDS011;29017;51.514;-0.178;2022-09-09T06:31:02;10.52;;;3.65;;
43419;SDS011;29017;51.514;-0.178;2022-09-09T06:33:36;9.98;;;3.50;;
43419;SDS011;29017;51.514;-0.178;2022-09-09T06:36:10;10.75;;;3.25;;
43419;SDS011;29017;51.514;-0.178;2022-09-09T06:38:42;11.57;;;3.40;;
43419;SDS011;29017;51.514;-0.178;2022-09-09T06:41:10;11.45;;;3.97;;
43419;SDS011;29017;51.514;-0.178;2022-09-09T06:43:39;11.43;;;4.07;;
43419;SDS011;29017;51.514;-0.178;2022-09-09T06:48:39;13.07;;;4.07;;
43419;SDS011;29017;51.514;-0.178;2022-09-09T06:53:38;13.65;;;3.92;;
43419;SDS011;29017;51.514;-0.178;2022-09-09T06:58:43;9.18;;;4.03;;
43419;SDS011;29017;51.514;-0.178;2022-09-09T07:01:12;12.10;;;4.03;;
43419;SDS011;29017;51.514;-0.178;2022-09-09T07:03:42;10.15;;;4.07;;
43419;SDS011;29017;51.514;-0.178;2022-09-09T07:08:43;10.05;;;3.92;;
43419;SDS011;29017;51.514;-0.178;2022-09-09T07:11:14;10.55;;;3.60;;
43419;SDS011;29017;51.514;-0.178;2022-09-09T07:13:41;8.63;;;3.20;;
43419;SDS011;29017;51.514;-0.178;2022-09-09T07:16:10;11.43;;;3.75;;
43419;SDS011;29017;51.514;-0.178;2022-09-09T07:18:39;12.52;;;3.83;;
43419;SDS011;29017;51.514;-0.178;2022-09-09T07:21:08;10.07;;;3.83;;
43419;SDS011;29017;51.514;-0.178;2022-09-09T07:23:36;5.57;;;2.95;;
43419;SDS011;29017;51.514;-0.178;2022-09-09T07:26:06;8.05;;;2.83;;
43419;SDS011;29017;51.514;-0.178;2022-09-09T07:28:36;7.30;;;2.85;;
43419;SDS011;29017;51.514;-0.178;2022-09-09T07:31:04;8.40;;;2.85;;
43419;SDS011;29017;51.514;-0.178;2022-09-09T07:33:33;7.13;;;2.92;;
43419;SDS011;29017;51.514;-0.178;2022-09-09T07:36:03;10.02;;;4.55;;
43419;SDS011;29017;51.514;-0.178;2022-09-09T07:38:37;6.28;;;2.97;;
43419;SDS011;29017;51.514;-0.178;2022-09-09T07:41:07;8.20;;;3.05;;
43419;SDS011;29017;51.514;-0.178;2022-09-09T07:43:38;7.05;;;2.72;;
43419;SDS011;29017;51.514;-0.178;2022-09-09T07:46:08;6.43;;;2.45;;
43419;SDS011;29017;51.514;-0.178;2022-09-09T07:48:36;10.38;;;2.80;;
43419;SDS011;29017;51.514;-0.178;2022-09-09T07:53:38;6.70;;;2.65;;
43419;SDS011;29017;51.514;-0.178;2022-09-09T07:58:39;9.90;;;2.58;;
43419;SDS011;29017;51.514;-0.178;2022-09-09T08:01:08;6.55;;;2.35;;
43419;SDS011;29017;51.514;-0.178;2022-09-09T08:03:36;7.03;;;2.35;;
43419;SDS011;29017;51.514;-0.178;2022-09-09T08:06:04;5.07;;;2.03;;
43419;SDS011;29017;51.514;-0.178;2022-09-09T08:08:33;4.13;;;1.98;;
43419;SDS011;29017;51.514;-0.178;2022-09-09T08:11:03;6.95;;;2.13;;
43419;SDS011;29017;51.514;-0.178;2022-09-09T08:13:31;6.10;;;2.35;;
43419;SDS011;29017;51.514;-0.178;2022-09-09T08:18:29;6.65;;;2.25;;
43419;SDS011;29017;51.514;-0.178;2022-09-09T08:20:57;7.70;;;3.80;;
43419;SDS011;29017;51.514;-0.178;2022-09-09T08:23:24;7.07;;;2.85;;
43419;SDS011;29017;51.514;-0.178;2022-09-09T08:25:52;7.97;;;3.13;;
43419;SDS011;29017;51.514;-0.178;2022-09-09T08:28:19;12.45;;;4.70;;
43419;SDS011;29017;51.514;-0.178;2022-09-09T08:30:47;8.85;;;3.33;;
43419;SDS011;29017;51.514;-0.178;2022-09-09T08:33:14;8.48;;;4.35;;
43419;SDS011;29017;51.514;-0.178;2022-09-09T08:35:49;9.18;;;4.15;;
43419;SDS011;29017;51.514;-0.178;2022-09-09T08:38:19;8.82;;;3.80;;
43419;SDS011;29017;51.514;-0.178;2022-09-09T08:40:47;10.48;;;3.72;;
43419;SDS011;29017;51.514;-0.178;2022-09-09T08:48:24;9.43;;;4.35;;
43419;SDS011;29017;51.514;-0.178;2022-09-09T08:51:02;9.73;;;3.85;;
43419;SDS011;29017;51.514;-0.178;2022-09-09T08:56:09;12.52;;;4.35;;
43419;SDS011;29017;51.514;-0.178;2022-09-09T09:03:57;9.48;;;4.15;;
43419;SDS011;29017;51.514;-0.178;2022-09-09T09:14:03;14.20;;;5.75;;
43419;SDS011;29017;51.514;-0.178;2022-09-09T09:19:13;13.45;;;5.88;;
43419;SDS011;29017;51.514;-0.178;2022-09-09T09:21:43;13.88;;;5.55;;
43419;SDS011;29017;51.514;-0.178;2022-09-09T09:29:15;14.60;;;6.47;;
43419;SDS011;29017;51.514;-0.178;2022-09-09T09:31:45;13.15;;;6.90;;
43419;SDS011;29017;51.514;-0.178;2022-09-09T09:34:18;15.02;;;7.32;;
43419;SDS011;29017;51.514;-0.178;2022-09-09T09:36:46;14.85;;;6.85;;
43419;SDS011;29017;51.514;-0.178;2022-09-09T09:39:23;15.25;;;6.60;;
43419;SDS011;29017;51.514;-0.178;2022-09-09T09:42:13;12.15;;;5.95;;
43419;SDS011;29017;51.514;-0.178;2022-09-09T09:44:46;13.80;;;5.70;;
43419;SDS011;29017;51.514;-0.178;2022-09-09T09:47:15;14.95;;;6.40;;
43419;SDS011;29017;51.514;-0.178;2022-09-09T09:52:20;17.35;;;7.72;;
43419;SDS011;29017;51.514;-0.178;2022-09-09T09:54:50;15.23;;;6.50;;
43419;SDS011;29017;51.514;-0.178;2022-09-09T09:57:18;15.57;;;6.40;;
43419;SDS011;29017;51.514;-0.178;2022-09-09T09:59:59;15.73;;;7.32;;
43419;SDS011;29017;51.514;-0.178;2022-09-09T10:05:08;15.65;;;7.22;;
43419;SDS011;29017;51.514;-0.178;2022-09-09T10:07:41;18.10;;;7.55;;
43419;SDS011;29017;51.514;-0.178;2022-09-09T10:10:15;14.82;;;7.80;;
43419;SDS011;29017;51.514;-0.178;2022-09-09T10:33:20;15.65;;;7.88;;
43419;SDS011;29017;51.514;-0.178;2022-09-09T10:56:26;15.93;;;7.35;;
43419;SDS011;29017;51.514;-0.178;2022-09-09T11:01:29;15.52;;;7.22;;
43419;SDS011;29017;51.514;-0.178;2022-09-09T11:04:05;13.90;;;6.25;;
43419;SDS011;29017;51.514;-0.178;2022-09-09T11:06:37;15.20;;;5.88;;
43419;SDS011;29017;51.514;-0.178;2022-09-09T11:09:13;12.77;;;6.13;;
43419;SDS011;29017;51.514;-0.178;2022-09-09T11:11:47;13.45;;;5.95;;
43419;SDS011;29017;51.514;-0.178;2022-09-09T11:16:52;8.48;;;4.63;;
43419;SDS011;29017;51.514;-0.178;2022-09-09T11:19:26;8.35;;;3.92;;
43419;SDS011;29017;51.514;-0.178;2022-09-09T11:22:01;9.48;;;4.00;;
43419;SDS011;29017;51.514;-0.178;2022-09-09T11:24:36;11.20;;;3.78;;
43419;SDS011;29017;51.514;-0.178;2022-09-09T11:35:31;10.77;;;3.97;;
43419;SDS011;29017;51.514;-0.178;2022-09-09T11:40:41;5.32;;;2.72;;
43419;SDS011;29017;51.514;-0.178;2022-09-09T11:43:12;4.40;;;2.30;;
43419;SDS011;29017;51.514;-0.178;2022-09-09T11:45:50;9.32;;;2.83;;
43419;SDS011;29017;51.514;-0.178;2022-09-09T11:51:09;5.68;;;2.72;;
43419;SDS011;29017;51.514;-0.178;2022-09-09T12:04:13;5.65;;;3.45;;
43419;SDS011;29017;51.514;-0.178;2022-09-09T12:09:25;8.18;;;2.97;;
43419;SDS011;29017;51.514;-0.178;2022-09-09T12:14:54;6.10;;;2.58;;
43419;SDS011;29017;51.514;-0.178;2022-09-09T12:17:24;5.20;;;2.50;;
43419;SDS011;29017;51.514;-0.178;2022-09-09T12:22:43;7.47;;;2.67;;
43419;SDS011;29017;51.514;-0.178;2022-09-09T12:25:25;4.45;;;2.20;;
43419;SDS011;29017;51.514;-0.178;2022-09-09T12:28:11;6.80;;;2.17;;
43419;SDS011;29017;51.514;-0.178;2022-09-09T12:33:34;3.75;;;1.70;;
43419;SDS011;29017;51.514;-0.178;2022-09-09T12:36:11;4.00;;;1.70;;
43419;SDS011;29017;51.514;-0.178;2022-09-09T12:38:44;7.68;;;2.65;;
43419;SDS011;29017;51.514;-0.178;2022-09-09T12:41:18;6.45;;;2.00;;
43419;SDS011;29017;51.514;-0.178;2022-09-09T12:43:49;4.20;;;1.80;;
43419;SDS011;29017;51.514;-0.178;2022-09-09T12:48:57;4.88;;;1.42;;
43419;SDS011;29017;51.514;-0.178;2022-09-09T12:51:26;5.13;;;1.30;;
43419;SDS011;29017;51.514;-0.178;2022-09-09T12:56:44;5.28;;;2.15;;
43419;SDS011;29017;51.514;-0.178;2022-09-09T12:59:23;4.13;;;1.48;;
43419;SDS011;29017;51.514;-0.178;2022-09-09T13:01:56;5.70;;;1.73;;
43419;SDS011;29017;51.514;-0.178;2022-09-09T13:04:24;5.23;;;2.03;;
43419;SDS011;29017;51.514;-0.178;2022-09-09T13:06:51;9.80;;;1.60;;
43419;SDS011;29017;51.514;-0.178;2022-09-09T13:09:21;3.70;;;1.45;;
43419;SDS011;29017;51.514;-0.178;2022-09-09T13:11:49;4.90;;;1.98;;
43419;SDS011;29017;51.514;-0.178;2022-09-09T13:14:28;3.78;;;1.10;;
43419;SDS011;29017;51.514;-0.178;2022-09-09T13:16:59;4.30;;;1.15;;
43419;SDS011;29017;51.514;-0.178;2022-09-09T13:19:31;3.72;;;1.63;;
43419;SDS011;29017;51.514;-0.178;2022-09-09T13:22:14;3.83;;;1.05;;
43419;SDS011;29017;51.514;-0.178;2022-09-09T13:25:01;6.18;;;1.10;;
43419;SDS011;29017;51.514;-0.178;2022-09-09T13:28:18;5.25;;;1.85;;
43419;SDS011;29017;51.514;-0.178;2022-09-09T13:31:00;3.00;;;1.42;;
43419;SDS011;29017;51.514;-0.178;2022-09-09T13:33:34;2.63;;;1.00;;
43419;SDS011;29017;51.514;-0.178;2022-09-09T13:36:07;1.80;;;1.00;;
43419;SDS011;29017;51.514;-0.178;2022-09-09T13:41:19;3.45;;;0.80;;
43419;SDS011;29017;51.514;-0.178;2022-09-09T13:43:48;2.40;;;0.63;;
43419;SDS011;29017;51.514;-0.178;2022-09-09T13:49:00;2.10;;;0.73;;
43419;SDS011;29017;51.514;-0.178;2022-09-09T13:51:45;6.05;;;3.17;;
43419;SDS011;29017;51.514;-0.178;2022-09-09T13:54:17;5.07;;;1.75;;
43419;SDS011;29017;51.514;-0.178;2022-09-09T13:56:45;4.22;;;1.17;;
43419;SDS011;29017;51.514;-0.178;2022-09-09T13:59:15;4.78;;;1.63;;
43419;SDS011;29017;51.514;-0.178;2022-09-09T14:01:46;3.58;;;1.10;;
43419;SDS011;29017;51.514;-0.178;2022-09-09T14:04:15;2.83;;;0.77;;
43419;SDS011;29017;51.514;-0.178;2022-09-09T14:06:43;2.08;;;0.77;;
43419;SDS011;29017;51.514;-0.178;2022-09-09T14:09:11;2.67;;;0.68;;
43419;SDS011;29017;51.514;-0.178;2022-09-09T14:11:42;5.53;;;1.02;;
43419;SDS011;29017;51.514;-0.178;2022-09-09T14:14:09;3.85;;;1.23;;
43419;SDS011;29017;51.514;-0.178;2022-09-09T14:16:36;3.92;;;1.33;;
43419;SDS011;29017;51.514;-0.178;2022-09-09T14:19:04;3.17;;;0.82;;
43419;SDS011;29017;51.514;-0.178;2022-09-09T14:21:31;2.90;;;1.10;;
43419;SDS011;29017;51.514;-0.178;2022-09-09T14:23:59;3.88;;;1.67;;
43419;SDS011;29017;51.514;-0.178;2022-09-09T14:26:25;3.05;;;0.77;;
43419;SDS011;29017;51.514;-0.178;2022-09-09T14:28:52;4.68;;;1.00;;
43419;SDS011;29017;51.514;-0.178;2022-09-09T14:31:22;4.20;;;1.60;;
43419;SDS011;29017;51.514;-0.178;2022-09-09T14:33:49;3.97;;;1.35;;
43419;SDS011;29017;51.514;-0.178;2022-09-09T14:36:17;2.47;;;1.20;;
43419;SDS011;29017;51.514;-0.178;2022-09-09T14:38:44;4.68;;;1.25;;
43419;SDS011;29017;51.514;-0.178;2022-09-09T14:41:11;4.15;;;3.25;;
43419;SDS011;29017;51.514;-0.178;2022-09-09T14:43:43;3.30;;;1.52;;
43419;SDS011;29017;51.514;-0.178;2022-09-09T14:46:12;3.80;;;1.58;;
43419;SDS011;29017;51.514;-0.178;2022-09-09T14:48:40;4.60;;;1.60;;
43419;SDS011;29017;51.514;-0.178;2022-09-09T14:51:08;3.50;;;1.23;;
43419;SDS011;29017;51.514;-0.178;2022-09-09T14:53:55;3.25;;;1.40;;
43419;SDS011;29017;51.514;-0.178;2022-09-09T14:56:26;4.63;;;2.50;;
43419;SDS011;29017;51.514;-0.178;2022-09-09T14:58:56;5.40;;;1.48;;
43419;SDS011;29017;51.514;-0.178;2022-09-09T15:01:27;2.40;;;1.15;;
43419;SDS011;29017;51.514;-0.178;2022-09-09T15:03:56;3.53;;;1.60;;
43419;SDS011;29017;51.514;-0.178;2022-09-09T15:06:25;4.63;;;2.25;;
43419;SDS011;29017;51.514;-0.178;2022-09-09T15:08:56;5.32;;;2.50;;
43419;SDS011;29017;51.514;-0.178;2022-09-09T15:11:26;3.92;;;2.42;;
43419;SDS011;29017;51.514;-0.178;2022-09-09T15:13:54;7.68;;;2.53;;
43419;SDS011;29017;51.514;-0.178;2022-09-09T15:16:22;4.05;;;1.73;;
43419;SDS011;29017;51.514;-0.178;2022-09-09T15:18:51;3.28;;;1.08;;
43419;SDS011;29017;51.514;-0.178;2022-09-09T15:21:21;4.78;;;1.20;;
43419;SDS011;29017;51.514;-0.178;2022-09-09T15:23:49;5.47;;;1.00;;
43419;SDS011;29017;51.514;-0.178;2022-09-09T15:26:17;4.70;;;1.02;;
43419;SDS011;29017;51.514;-0.178;2022-09-09T15:28:45;2.97;;;1.17;;
43419;SDS011;29017;51.514;-0.178;2022-09-09T15:31:14;6.57;;;1.50;;
43419;SDS011;29017;51.514;-0.178;2022-09-09T15:33:52;4.30;;;1.10;;
43419;SDS011;29017;51.514;-0.178;2022-09-09T15:36:31;4.65;;;1.40;;
43419;SDS011;29017;51.514;-0.178;2022-09-09T15:39:00;3.78;;;1.58;;
43419;SDS011;29017;51.514;-0.178;2022-09-09T15:41:28;4.55;;;1.10;;
43419;SDS011;29017;51.514;-0.178;2022-09-09T15:43:57;4.03;;;1.00;;
43419;SDS011;29017;51.514;-0.178;2022-09-09T15:46:28;5.15;;;1.48;;
43419;SDS011;29017;51.514;-0.178;2022-09-09T15:49:21;3.42;;;0.80;;
43419;SDS011;29017;51.514;-0.178;2022-09-09T15:51:52;3.30;;;0.90;;
43419;SDS011;29017;51.514;-0.178;2022-09-09T15:54:25;3.03;;;1.10;;
43419;SDS011;29017;51.514;-0.178;2022-09-09T15:56:53;2.63;;;1.23;;
43419;SDS011;29017;51.514;-0.178;2022-09-09T15:59:22;1.98;;;1.20;;
43419;SDS011;29017;51.514;-0.178;2022-09-09T16:01:51;4.07;;;1.13;;
43419;SDS011;29017;51.514;-0.178;2022-09-09T16:04:18;3.17;;;1.00;;
43419;SDS011;29017;51.514;-0.178;2022-09-09T16:06:56;5.85;;;1.40;;
43419;SDS011;29017;51.514;-0.178;2022-09-09T16:09:27;8.40;;;1.42;;
43419;SDS011;29017;51.514;-0.178;2022-09-09T16:11:58;4.20;;;1.30;;
43419;SDS011;29017;51.514;-0.178;2022-09-09T16:14:27;6.82;;;1.77;;
43419;SDS011;29017;51.514;-0.178;2022-09-09T16:16:54;4.38;;;1.20;;
43419;SDS011;29017;51.514;-0.178;2022-09-09T16:19:22;4.35;;;1.50;;
43419;SDS011;29017;51.514;-0.178;2022-09-09T16:21:49;4.70;;;1.88;;
43419;SDS011;29017;51.514;-0.178;2022-09-09T16:24:17;2.25;;;1.40;;
43419;SDS011;29017;51.514;-0.178;2022-09-09T16:26:46;4.25;;;1.80;;
43419;SDS011;29017;51.514;-0.178;2022-09-09T16:29:15;6.95;;;3.67;;
43419;SDS011;29017;51.514;-0.178;2022-09-09T16:31:44;6.57;;;2.00;;
43419;SDS011;29017;51.514;-0.178;2022-09-09T16:34:12;4.18;;;1.52;;
43419;SDS011;29017;51.514;-0.178;2022-09-09T16:36:41;4.47;;;1.23;;
43419;SDS011;29017;51.514;-0.178;2022-09-09T16:39:10;4.60;;;1.35;;
43419;SDS011;29017;51.514;-0.178;2022-09-09T16:41:39;4.70;;;1.38;;
43419;SDS011;29017;51.514;-0.178;2022-09-09T16:44:08;5.45;;;1.38;;
43419;SDS011;29017;51.514;-0.178;2022-09-09T16:46:38;3.63;;;2.15;;
43419;SDS011;29017;51.514;-0.178;2022-09-09T16:49:07;3.25;;;1.20;;
43419;SDS011;29017;51.514;-0.178;2022-09-09T16:51:37;3.33;;;1.00;;
43419;SDS011;29017;51.514;-0.178;2022-09-09T16:56:37;6.75;;;1.00;;
43419;SDS011;29017;51.514;-0.178;2022-09-09T16:59:09;8.05;;;1.17;;
43419;SDS011;29017;51.514;-0.178;2022-09-09T17:01:38;4.13;;;1.80;;
43419;SDS011;29017;51.514;-0.178;2022-09-09T17:04:11;43.20;;;17.27;;
43419;SDS011;29017;51.514;-0.178;2022-09-09T17:06:45;4.72;;;2.15;;
43419;SDS011;29017;51.514;-0.178;2022-09-09T17:09:28;5.88;;;1.45;;
43419;SDS011;29017;51.514;-0.178;2022-09-09T17:12:14;4.30;;;1.25;;
43419;SDS011;29017;51.514;-0.178;2022-09-09T17:15:06;3.88;;;1.13;;
43419;SDS011;29017;51.514;-0.178;2022-09-09T17:17:34;5.55;;;1.67;;
43419;SDS011;29017;51.514;-0.178;2022-09-09T17:20:01;3.20;;;1.30;;
43419;SDS011;29017;51.514;-0.178;2022-09-09T17:22:29;2.55;;;1.05;;
43419;SDS011;29017;51.514;-0.178;2022-09-09T17:24:55;3.60;;;1.70;;
43419;SDS011;29017;51.514;-0.178;2022-09-09T17:27:22;5.07;;;1.38;;
43419;SDS011;29017;51.514;-0.178;2022-09-09T17:29:49;4.50;;;1.27;;
43419;SDS011;29017;51.514;-0.178;2022-09-09T17:32:16;3.08;;;1.27;;
43419;SDS011;29017;51.514;-0.178;2022-09-09T17:34:43;3.05;;;1.02;;
43419;SDS011;29017;51.514;-0.178;2022-09-09T17:37:10;4.85;;;2.00;;
43419;SDS011;29017;51.514;-0.178;2022-09-09T17:39:37;6.90;;;1.35;;
43419;SDS011;29017;51.514;-0.178;2022-09-09T17:42:04;3.97;;;1.00;;
43419;SDS011;29017;51.514;-0.178;2022-09-09T17:44:33;3.70;;;1.15;;
43419;SDS011;29017;51.514;-0.178;2022-09-09T17:47:00;3.20;;;1.00;;
43419;SDS011;29017;51.514;-0.178;2022-09-09T17:49:32;4.82;;;1.30;;
43419;SDS011;29017;51.514;-0.178;2022-09-09T17:51:59;5.75;;;1.42;;
43419;SDS011;29017;51.514;-0.178;2022-09-09T17:54:27;3.50;;;1.83;;
43419;SDS011;29017;51.514;-0.178;2022-09-09T17:56:54;1.52;;;0.85;;
43419;SDS011;29017;51.514;-0.178;2022-09-09T17:59:21;3.47;;;0.95;;
43419;SDS011;29017;51.514;-0.178;2022-09-09T18:01:48;5.93;;;1.20;;
43419;SDS011;29017;51.514;-0.178;2022-09-09T18:04:16;4.43;;;1.27;;
43419;SDS011;29017;51.514;-0.178;2022-09-09T18:06:45;3.03;;;1.00;;
43419;SDS011;29017;51.514;-0.178;2022-09-09T18:09:15;3.47;;;1.10;;
43419;SDS011;29017;51.514;-0.178;2022-09-09T18:11:46;4.63;;;1.60;;
43419;SDS011;29017;51.514;-0.178;2022-09-09T18:14:18;1.98;;;1.10;;
43419;SDS011;29017;51.514;-0.178;2022-09-09T18:16:47;2.03;;;0.90;;
43419;SDS011;29017;51.514;-0.178;2022-09-09T18:19:19;3.08;;;0.80;;
43419;SDS011;29017;51.514;-0.178;2022-09-09T18:21:48;2.85;;;0.90;;
43419;SDS011;29017;51.514;-0.178;2022-09-09T18:24:16;2.50;;;1.02;;
43419;SDS011;29017;51.514;-0.178;2022-09-09T18:26:52;2.95;;;0.88;;
43419;SDS011;29017;51.514;-0.178;2022-09-09T18:29:25;1.73;;;0.90;;
43419;SDS011;29017;51.514;-0.178;2022-09-09T18:31:52;2.05;;;0.60;;